createdAt,value
2017-09-05T00:00:17.018Z,74.83
2017-09-05T00:00:44.995Z,75.4
2017-09-05T00:01:13.041Z,74.64
2017-09-05T00:01:41.058Z,74.64
2017-09-05T00:02:09.368Z,75.21
2017-09-05T00:02:37.416Z,75.02
2017-09-05T00:03:05.563Z,75.7
2017-09-05T00:03:33.656Z,76.07
2017-09-05T00:04:01.790Z,76.17
2017-09-05T00:04:29.819Z,76.07
2017-09-05T00:04:57.918Z,76.17
2017-09-05T00:05:25.870Z,76.46
2017-09-05T00:05:54.009Z,76.94
2017-09-05T00:06:22.160Z,77.04
2017-09-05T00:06:49.993Z,77.42
2017-09-05T00:07:18.241Z,77.23
2017-09-05T00:07:46.307Z,77.42
2017-09-05T00:08:14.362Z,77.51
2017-09-05T00:08:42.344Z,77.9
2017-09-05T00:09:10.482Z,77.71
2017-09-05T00:09:38.610Z,77.71
2017-09-05T00:10:06.525Z,78.57
2017-09-05T00:10:34.443Z,78.28
2017-09-05T00:11:02.561Z,78.57
2017-09-05T00:11:30.396Z,78.86
2017-09-05T00:11:58.238Z,79.14
2017-09-05T00:12:26.446Z,79.34
2017-09-05T00:12:54.476Z,79.05
2017-09-05T00:13:22.619Z,79.14
2017-09-05T00:13:50.772Z,79.63
2017-09-05T00:14:18.811Z,80.11
2017-09-05T00:14:46.940Z,80.4
2017-09-05T00:15:14.967Z,80.58
2017-09-05T00:15:42.925Z,80.01
2017-09-05T00:16:10.944Z,81.07
2017-09-05T00:16:38.987Z,80.78
2017-09-05T00:17:06.924Z,81.16
2017-09-05T00:17:34.989Z,81.26
2017-09-05T00:18:03.133Z,81.45
2017-09-05T00:18:31.272Z,81.74
2017-09-05T00:18:59.215Z,81.54
2017-09-05T00:19:27.367Z,81.93
2017-09-05T00:19:55.504Z,81.74
2017-09-05T00:20:23.429Z,82.12
2017-09-05T00:20:51.452Z,81.93
2017-09-05T00:21:19.504Z,82.51
2017-09-05T00:21:47.509Z,82.89
2017-09-05T00:22:15.703Z,82.89
2017-09-05T00:22:43.875Z,82.7
2017-09-05T00:23:11.963Z,82.89
2017-09-05T00:23:40.119Z,83.56
2017-09-05T00:24:08.234Z,83.85
2017-09-05T00:24:36.235Z,84.04
2017-09-05T00:25:04.290Z,84.33
2017-09-05T00:25:32.478Z,83.94
2017-09-05T00:26:00.506Z,84.91
2017-09-05T00:26:28.671Z,84.42
2017-09-05T00:26:56.709Z,84.33
2017-09-05T00:27:24.815Z,84.52
2017-09-05T00:27:52.643Z,85
2017-09-05T00:28:20.679Z,84.71
2017-09-05T00:28:48.722Z,85.38
2017-09-05T00:29:16.563Z,84.95
2017-09-05T00:29:44.684Z,85.19
2017-09-05T00:30:12.769Z,85.25
2017-09-05T00:30:40.769Z,85.72
2017-09-05T00:31:08.684Z,85.53
2017-09-05T00:31:36.837Z,85.63
2017-09-05T00:32:04.801Z,86.01
2017-09-05T00:32:32.911Z,85.77
2017-09-05T00:33:00.933Z,85.92
2017-09-05T00:33:28.995Z,86.3
2017-09-05T00:33:57.086Z,86.21
2017-09-05T00:34:24.958Z,86.4
2017-09-05T00:34:52.991Z,86.49
2017-09-05T00:35:21.018Z,86.78
2017-09-05T00:35:49.182Z,86.68
2017-09-05T00:36:17.274Z,86.97
2017-09-05T00:36:45.283Z,87.07
2017-09-05T00:37:13.224Z,86.97
2017-09-05T00:37:41.377Z,86.58
2017-09-05T00:38:09.292Z,86.97
2017-09-05T00:38:37.342Z,87.07
2017-09-05T00:39:05.374Z,86.97
2017-09-05T00:39:33.405Z,87.26
2017-09-05T00:40:01.334Z,87.45
2017-09-05T00:40:29.494Z,87.35
2017-09-05T00:40:57.628Z,87.55
2017-09-05T00:41:25.671Z,88.12
2017-09-05T00:41:53.605Z,87.64
2017-09-05T00:42:21.768Z,88.12
2017-09-05T00:42:49.767Z,87.64
2017-09-05T00:43:17.697Z,88.12
2017-09-05T00:43:45.791Z,88.12
2017-09-05T00:44:13.997Z,88.7
2017-09-05T00:44:42.058Z,88.79
2017-09-05T00:45:10.167Z,88.51
2017-09-05T00:45:38.162Z,88.79
2017-09-05T00:46:06.110Z,89.27
2017-09-05T00:46:34.294Z,88.89
2017-09-05T00:47:02.455Z,89.18
2017-09-05T00:47:30.570Z,89.37
2017-09-05T00:47:58.517Z,89.27
2017-09-05T00:48:26.589Z,89.85
2017-09-05T00:48:54.660Z,89.65
2017-09-05T00:49:22.671Z,90.14
2017-09-05T00:49:50.541Z,90.14
2017-09-05T00:50:18.536Z,89.75
2017-09-05T00:50:46.669Z,90.61
2017-09-05T00:51:14.734Z,90.52
2017-09-05T00:51:42.697Z,90.33
2017-09-05T00:52:10.859Z,90.81
2017-09-05T00:52:38.908Z,90.52
2017-09-05T00:53:06.988Z,90.42
2017-09-05T00:53:34.883Z,91
2017-09-05T00:54:02.972Z,91
2017-09-05T00:54:31.033Z,91.28
2017-09-05T00:54:59.151Z,91.77
2017-09-05T00:55:27.278Z,91.48
2017-09-05T00:55:55.405Z,91.57
2017-09-05T00:56:23.423Z,91.86
2017-09-05T00:56:51.542Z,91.77
2017-09-05T00:57:19.560Z,92.05
2017-09-05T00:57:47.711Z,92.15
2017-09-05T00:58:15.630Z,91.38
2017-09-05T00:58:43.730Z,91.77
2017-09-05T00:59:11.782Z,91.67
2017-09-05T00:59:39.804Z,91.77
2017-09-05T01:00:07.836Z,91.82
2017-09-05T01:00:35.855Z,92.15
2017-09-05T01:01:03.954Z,91.24
2017-09-05T01:01:32.023Z,91.28
2017-09-05T01:02:00.131Z,91.34
2017-09-05T01:02:28.050Z,91.63
2017-09-05T01:02:56.248Z,92.3
2017-09-05T01:03:24.296Z,92.2
2017-09-05T01:03:52.295Z,92.01
2017-09-05T01:04:20.388Z,92.2
2017-09-05T01:04:48.463Z,92.2
2017-09-05T01:05:16.310Z,92.01
2017-09-05T01:05:44.334Z,92.58
2017-09-05T01:06:12.375Z,92.58
2017-09-05T01:06:40.573Z,92.39
2017-09-05T01:07:08.486Z,92.87
2017-09-05T01:07:36.660Z,92.87
2017-09-05T01:08:04.783Z,93.06
2017-09-05T01:08:32.883Z,93.26
2017-09-05T01:09:01.073Z,92.77
2017-09-05T01:09:29.224Z,93.16
2017-09-05T01:09:57.327Z,93.35
2017-09-05T01:10:25.267Z,93.44
2017-09-05T01:10:53.300Z,93.06
2017-09-05T01:11:21.371Z,92.77
2017-09-05T01:11:49.433Z,92.87
2017-09-05T01:12:17.479Z,93.26
2017-09-05T01:12:45.582Z,93.11
2017-09-05T01:13:13.620Z,93.93
2017-09-05T01:13:41.666Z,93.73
2017-09-05T01:14:09.608Z,93.78
2017-09-05T01:14:37.751Z,93.78
2017-09-05T01:15:05.814Z,94.12
2017-09-05T01:15:33.943Z,94.26
2017-09-05T01:16:02.070Z,93.88
2017-09-05T01:16:30.192Z,94.55
2017-09-05T01:16:58.151Z,94.45
2017-09-05T01:17:26.245Z,94.69
2017-09-05T01:17:54.403Z,94.64
2017-09-05T01:18:22.539Z,94.26
2017-09-05T01:18:50.662Z,94.93
2017-09-05T01:19:18.708Z,94.84
2017-09-05T01:19:46.387Z,94.74
2017-09-05T01:20:14.520Z,94.55
2017-09-05T01:20:42.527Z,94.55
2017-09-05T01:21:10.483Z,95.22
2017-09-05T01:21:38.621Z,95.03
2017-09-05T01:22:06.552Z,95.22
2017-09-05T01:22:34.587Z,95.41
2017-09-05T01:23:02.580Z,94.93
2017-09-05T01:23:30.773Z,95.31
2017-09-05T01:23:58.836Z,95.51
2017-09-05T01:24:26.878Z,95.12
2017-09-05T01:24:55.099Z,95.22
2017-09-05T01:25:23.246Z,95.41
2017-09-05T01:25:51.291Z,95.7
2017-09-05T01:26:19.391Z,95.79
2017-09-05T01:26:47.418Z,95.89
2017-09-05T01:27:15.594Z,96.37
2017-09-05T01:27:43.616Z,95.98
2017-09-05T01:28:11.730Z,95.98
2017-09-05T01:28:39.900Z,95.98
2017-09-05T01:29:07.944Z,96.18
2017-09-05T01:29:35.960Z,96.08
2017-09-05T01:30:03.822Z,95.79
2017-09-05T01:30:31.867Z,96.08
2017-09-05T01:30:59.767Z,96.08
2017-09-05T01:31:27.722Z,95.98
2017-09-05T01:31:55.776Z,96.37
2017-09-05T01:32:23.697Z,96.18
2017-09-05T01:32:51.727Z,96.18
2017-09-05T01:33:19.660Z,96.66
2017-09-05T01:33:47.736Z,96.75
2017-09-05T01:34:15.787Z,96.84
2017-09-05T01:34:43.952Z,96.56
2017-09-05T01:35:12.067Z,97.33
2017-09-05T01:35:40.205Z,97.33
2017-09-05T01:36:08.235Z,97.14
2017-09-05T01:36:36.142Z,96.84
2017-09-05T01:37:04.288Z,97.14
2017-09-05T01:37:32.306Z,96.94
2017-09-05T01:38:00.421Z,97.23
2017-09-05T01:38:28.244Z,97.33
2017-09-05T01:38:56.275Z,97.8
2017-09-05T01:39:24.433Z,97.61
2017-09-05T01:39:52.592Z,97.8
2017-09-05T01:40:20.608Z,97.61
2017-09-05T01:40:48.574Z,97.52
2017-09-05T01:41:16.652Z,97.71
2017-09-05T01:41:44.644Z,97.8
2017-09-05T01:42:12.561Z,97.61
2017-09-05T01:42:40.702Z,97.8
2017-09-05T01:43:08.974Z,97.9
2017-09-05T01:43:37.014Z,97.61
2017-09-05T01:44:05.010Z,97.71
2017-09-05T01:44:32.938Z,98
2017-09-05T01:45:00.802Z,97.8
2017-09-05T01:45:28.769Z,98
2017-09-05T01:45:56.815Z,98.57
2017-09-05T01:46:24.945Z,98.38
2017-09-05T01:46:53.080Z,98.96
2017-09-05T01:47:21.132Z,98.76
2017-09-05T01:47:49.260Z,98.57
2017-09-05T01:48:17.376Z,98.38
2017-09-05T01:48:45.508Z,98.28
2017-09-05T01:49:13.631Z,98.67
2017-09-05T01:49:41.683Z,99.05
2017-09-05T01:50:09.601Z,98.96
2017-09-05T01:50:37.624Z,99.05
2017-09-05T01:51:05.653Z,99.15
2017-09-05T01:51:33.820Z,99.24
2017-09-05T01:52:01.995Z,99.43
2017-09-05T01:52:30.159Z,99.63
2017-09-05T01:52:58.206Z,99.99
2017-09-05T01:53:26.461Z,99.99
2017-09-05T01:53:54.404Z,99.91
2017-09-05T01:54:22.536Z,99.99
2017-09-05T01:54:50.656Z,99.99
2017-09-05T01:55:18.567Z,99.91
2017-09-05T01:55:46.638Z,99.53
2017-09-05T01:56:14.792Z,99.72
2017-09-05T01:56:42.954Z,99.72
2017-09-05T01:57:11.143Z,99.63
2017-09-05T01:57:39.290Z,99.99
2017-09-05T01:58:07.532Z,99.99
2017-09-05T01:58:35.544Z,99.99
2017-09-05T01:59:03.356Z,99.99
2017-09-05T01:59:31.404Z,99.99
2017-09-05T01:59:59.215Z,99.99
2017-09-05T02:00:27.236Z,99.99
2017-09-05T02:00:55.288Z,99.99
2017-09-05T02:01:23.404Z,99.99
2017-09-05T02:01:51.429Z,99.99
2017-09-05T02:02:19.440Z,99.99
2017-09-05T02:02:47.627Z,99.99
2017-09-05T02:03:15.873Z,99.99
2017-09-05T02:03:43.793Z,99.99
2017-09-05T02:04:11.971Z,99.99
2017-09-05T02:04:40.044Z,99.99
2017-09-05T02:05:07.986Z,99.99
2017-09-05T02:05:36.058Z,99.99
2017-09-05T02:06:04.086Z,99.99
2017-09-05T02:06:32.212Z,99.99
2017-09-05T02:07:00.128Z,99.99
2017-09-05T02:07:28.065Z,99.99
2017-09-05T02:07:56.200Z,99.99
2017-09-05T02:08:24.302Z,99.99
2017-09-05T02:08:52.455Z,99.99
2017-09-05T02:09:20.488Z,99.99
2017-09-05T02:09:48.604Z,99.99
2017-09-05T02:10:16.520Z,99.99
2017-09-05T02:10:44.690Z,99.99
2017-09-05T02:11:12.709Z,99.99
2017-09-05T02:11:40.890Z,99.99
2017-09-05T02:12:09.025Z,99.99
2017-09-05T02:12:37.184Z,99.99
2017-09-05T02:13:05.346Z,99.99
2017-09-05T02:13:33.368Z,99.99
2017-09-05T02:14:01.526Z,99.99
2017-09-05T02:14:29.664Z,99.99
2017-09-05T02:14:57.694Z,99.99
2017-09-05T02:15:25.738Z,99.99
2017-09-05T02:15:53.882Z,99.99
2017-09-05T02:16:21.746Z,99.99
2017-09-05T02:16:49.666Z,99.99
2017-09-05T02:17:17.709Z,99.99
2017-09-05T02:17:45.834Z,99.99
2017-09-05T02:18:13.997Z,99.99
2017-09-05T02:18:42.127Z,99.99
2017-09-05T02:19:10.214Z,99.99
2017-09-05T02:19:38.373Z,99.99
2017-09-05T02:20:06.416Z,99.99
2017-09-05T02:20:34.602Z,99.99
2017-09-05T02:21:02.681Z,99.99
2017-09-05T02:21:30.731Z,99.99
2017-09-05T02:21:58.691Z,99.99
2017-09-05T02:22:26.857Z,99.99
2017-09-05T02:22:54.891Z,99.99
2017-09-05T02:23:22.828Z,99.99
2017-09-05T02:23:50.990Z,99.99
2017-09-05T02:24:19.079Z,99.99
2017-09-05T02:24:47.139Z,99.99
2017-09-05T02:25:15.188Z,99.99
2017-09-05T02:25:43.162Z,99.99
2017-09-05T02:26:11.219Z,99.99
2017-09-05T02:26:39.249Z,99.99
2017-09-05T02:27:07.382Z,99.99
2017-09-05T02:27:35.414Z,99.99
2017-09-05T02:28:03.416Z,99.99
2017-09-05T02:28:31.671Z,99.99
2017-09-05T02:28:59.831Z,99.99
2017-09-05T02:29:27.780Z,99.99
2017-09-05T02:29:55.813Z,99.99
2017-09-05T02:30:23.813Z,99.99
2017-09-05T02:30:51.810Z,99.99
2017-09-05T02:31:19.890Z,99.99
2017-09-05T02:31:48.034Z,99.99
2017-09-05T02:32:16.196Z,99.99
2017-09-05T02:32:44.206Z,99.99
2017-09-05T02:33:12.165Z,99.99
2017-09-05T02:33:40.275Z,99.99
2017-09-05T02:34:08.398Z,99.99
2017-09-05T02:34:36.547Z,99.99
2017-09-05T02:35:04.726Z,99.99
2017-09-05T02:35:32.753Z,99.99
2017-09-05T02:36:00.696Z,99.99
2017-09-05T02:36:28.829Z,99.99
2017-09-05T02:36:56.929Z,99.99
2017-09-05T02:37:25.036Z,99.99
2017-09-05T02:37:53.171Z,99.99
2017-09-05T02:38:21.283Z,99.99
2017-09-05T02:38:49.545Z,99.99
2017-09-05T02:39:17.573Z,99.99
2017-09-05T02:39:45.564Z,99.99
2017-09-05T02:40:13.583Z,99.99
2017-09-05T02:40:41.748Z,99.99
2017-09-05T02:41:09.908Z,99.99
2017-09-05T02:41:37.843Z,99.99
2017-09-05T02:42:05.888Z,99.99
2017-09-05T02:42:33.933Z,99.99
2017-09-05T02:43:01.909Z,99.99
2017-09-05T02:43:29.850Z,99.99
2017-09-05T02:43:58.096Z,99.99
2017-09-05T02:44:26.137Z,99.99
2017-09-05T02:44:54.157Z,99.99
2017-09-05T02:45:22.188Z,99.99
2017-09-05T02:45:50.230Z,99.99
2017-09-05T02:46:18.373Z,99.99
2017-09-05T02:46:46.516Z,99.99
2017-09-05T02:47:14.519Z,99.99
2017-09-05T02:47:42.614Z,99.99
2017-09-05T02:48:10.752Z,99.99
2017-09-05T02:48:38.873Z,99.99
2017-09-05T02:49:06.918Z,99.99
2017-09-05T02:49:35.038Z,99.99
2017-09-05T02:50:03.159Z,99.99
2017-09-05T02:50:31.339Z,99.99
2017-09-05T02:50:59.476Z,99.99
2017-09-05T02:51:27.522Z,99.99
2017-09-05T02:51:55.693Z,99.99
2017-09-05T02:52:23.672Z,99.99
2017-09-05T02:52:51.704Z,99.99
2017-09-05T02:53:19.651Z,99.99
2017-09-05T02:53:47.806Z,99.99
2017-09-05T02:54:15.864Z,99.99
2017-09-05T02:54:43.873Z,99.99
2017-09-05T02:55:12.036Z,99.99
2017-09-05T02:55:40.171Z,99.99
2017-09-05T02:56:08.204Z,99.99
2017-09-05T02:56:36.257Z,99.99
2017-09-05T02:57:04.399Z,99.99
2017-09-05T02:57:32.367Z,99.99
2017-09-05T02:58:00.541Z,99.99
2017-09-05T02:58:28.541Z,99.99
2017-09-05T02:58:56.573Z,99.99
2017-09-05T02:59:24.706Z,99.99
2017-09-05T02:59:52.807Z,99.99
2017-09-05T03:00:20.626Z,99.99
2017-09-05T03:00:48.765Z,99.99
2017-09-05T03:01:16.812Z,99.99
2017-09-05T03:01:44.840Z,99.99
2017-09-05T03:02:12.916Z,99.99
2017-09-05T03:02:40.842Z,99.99
2017-09-05T03:03:08.897Z,99.99
2017-09-05T03:03:36.989Z,99.99
2017-09-05T03:04:05.116Z,99.99
2017-09-05T03:04:33.259Z,99.99
2017-09-05T03:05:01.266Z,99.99
2017-09-05T03:05:29.354Z,99.99
2017-09-05T03:05:57.453Z,99.99
2017-09-05T03:06:25.275Z,99.99
2017-09-05T03:06:53.436Z,99.99
2017-09-05T03:07:21.384Z,99.99
2017-09-05T03:07:49.544Z,99.99
2017-09-05T03:08:17.454Z,99.99
2017-09-05T03:08:45.635Z,99.99
2017-09-05T03:09:13.907Z,99.99
2017-09-05T03:09:41.863Z,99.99
2017-09-05T03:10:09.986Z,99.99
2017-09-05T03:10:37.934Z,99.99
2017-09-05T03:11:05.910Z,99.99
2017-09-05T03:11:33.958Z,99.99
2017-09-05T03:12:01.950Z,99.99
2017-09-05T03:12:30.074Z,99.99
2017-09-05T03:12:58.063Z,99.99
2017-09-05T03:13:26.112Z,99.99
2017-09-05T03:13:54.194Z,99.99
2017-09-05T03:14:22.171Z,99.99
2017-09-05T03:14:50.364Z,99.99
2017-09-05T03:15:18.336Z,99.99
2017-09-05T03:15:46.361Z,99.99
2017-09-05T03:16:14.404Z,99.99
2017-09-05T03:16:42.374Z,99.99
2017-09-05T03:17:10.209Z,99.99
2017-09-05T03:17:37.960Z,99.99
2017-09-05T03:18:06.025Z,99.99
2017-09-05T03:18:34.198Z,99.99
2017-09-05T03:19:02.373Z,99.99
2017-09-05T03:19:30.455Z,99.99
2017-09-05T03:19:58.516Z,99.99
2017-09-05T03:20:26.653Z,99.99
2017-09-05T03:20:54.837Z,99.99
2017-09-05T03:21:22.951Z,99.99
2017-09-05T03:21:51.012Z,99.99
2017-09-05T03:22:18.965Z,99.99
2017-09-05T03:22:47.062Z,99.99
2017-09-05T03:23:15.155Z,99.99
2017-09-05T03:23:43.340Z,99.99
2017-09-05T03:24:11.455Z,99.99
2017-09-05T03:24:39.573Z,99.99
2017-09-05T03:25:07.664Z,99.99
2017-09-05T03:25:35.518Z,99.99
2017-09-05T03:26:03.370Z,99.99
2017-09-05T03:26:31.343Z,99.99
2017-09-05T03:26:59.287Z,99.99
2017-09-05T03:27:27.416Z,99.99
2017-09-05T03:27:55.516Z,99.99
2017-09-05T03:28:23.647Z,99.99
2017-09-05T03:28:51.726Z,99.99
2017-09-05T03:29:19.747Z,99.99
2017-09-05T03:29:47.779Z,99.99
2017-09-05T03:30:15.828Z,99.99
2017-09-05T03:30:43.725Z,99.99
2017-09-05T03:31:11.667Z,99.99
2017-09-05T03:31:39.711Z,99.99
2017-09-05T03:32:07.721Z,99.99
2017-09-05T03:32:35.781Z,99.99
2017-09-05T03:33:03.781Z,99.99
2017-09-05T03:33:31.730Z,99.99
2017-09-05T03:33:59.791Z,99.99
2017-09-05T03:34:27.843Z,99.99
2017-09-05T03:34:55.926Z,99.99
2017-09-05T03:35:23.948Z,99.99
2017-09-05T03:35:52.099Z,99.99
2017-09-05T03:36:20.149Z,99.99
2017-09-05T03:36:48.173Z,99.99
2017-09-05T03:37:16.032Z,99.99
2017-09-05T03:37:43.939Z,99.99
2017-09-05T03:38:11.984Z,99.99
2017-09-05T03:38:40.050Z,99.99
2017-09-05T03:39:08.083Z,99.99
2017-09-05T03:39:36.053Z,99.99
2017-09-05T03:40:04.048Z,99.99
2017-09-05T03:40:32.139Z,99.99
2017-09-05T03:41:00.164Z,99.99
2017-09-05T03:41:28.180Z,99.99
2017-09-05T03:41:56.104Z,99.99
2017-09-05T03:42:23.956Z,99.99
2017-09-05T03:42:51.998Z,99.99
2017-09-05T03:43:20.194Z,99.99
2017-09-05T03:43:48.205Z,99.99
2017-09-05T03:44:16.410Z,99.99
2017-09-05T03:44:44.444Z,99.99
2017-09-05T03:45:12.505Z,99.99
2017-09-05T03:45:40.528Z,99.99
2017-09-05T03:46:08.587Z,99.99
2017-09-05T03:46:36.753Z,99.99
2017-09-05T03:47:04.725Z,99.99
2017-09-05T03:47:32.889Z,99.99
2017-09-05T03:48:01.011Z,99.99
2017-09-05T03:48:29.024Z,99.99
2017-09-05T03:48:57.060Z,99.99
2017-09-05T03:49:25.283Z,99.99
2017-09-05T03:49:53.233Z,99.99
2017-09-05T03:50:20.976Z,99.99
2017-09-05T03:50:49.005Z,99.99
2017-09-05T03:51:17.112Z,99.99
2017-09-05T03:51:45.290Z,99.99
2017-09-05T03:52:13.443Z,99.99
2017-09-05T03:52:41.387Z,99.99
2017-09-05T03:53:09.461Z,99.99
2017-09-05T03:53:37.442Z,99.99
2017-09-05T03:54:05.476Z,99.99
2017-09-05T03:54:33.747Z,99.99
2017-09-05T03:55:01.880Z,99.99
2017-09-05T03:55:29.843Z,99.99
2017-09-05T03:55:57.843Z,99.99
2017-09-05T03:56:25.913Z,99.99
2017-09-05T03:56:54.028Z,99.99
2017-09-05T03:57:22.098Z,99.99
2017-09-05T03:57:50.088Z,99.99
2017-09-05T03:58:18.225Z,99.99
2017-09-05T03:58:46.319Z,99.99
2017-09-05T03:59:14.423Z,99.99
2017-09-05T03:59:42.689Z,99.99
2017-09-05T04:00:10.882Z,99.99
2017-09-05T04:00:38.834Z,99.99
2017-09-05T04:01:06.956Z,99.99
2017-09-05T04:01:34.910Z,99.99
2017-09-05T04:02:02.983Z,99.99
2017-09-05T04:02:31.021Z,99.99
2017-09-05T04:02:59.065Z,99.99
2017-09-05T04:03:27.086Z,99.99
2017-09-05T04:03:54.999Z,99.99
2017-09-05T04:04:23.255Z,99.99
2017-09-05T04:04:51.404Z,99.99
2017-09-05T04:05:19.431Z,99.99
2017-09-05T04:05:47.454Z,99.99
2017-09-05T04:06:15.398Z,99.99
2017-09-05T04:06:43.501Z,99.99
2017-09-05T04:07:11.603Z,99.99
2017-09-05T04:07:39.633Z,99.99
2017-09-05T04:08:07.746Z,99.99
2017-09-05T04:08:35.884Z,99.99
2017-09-05T04:09:03.936Z,99.99
2017-09-05T04:09:32.148Z,99.99
2017-09-05T04:10:00.223Z,99.99
2017-09-05T04:10:28.204Z,99.99
2017-09-05T04:10:56.292Z,99.99
2017-09-05T04:11:24.309Z,99.99
2017-09-05T04:11:52.382Z,99.99
2017-09-05T04:12:20.505Z,99.99
2017-09-05T04:12:48.602Z,99.99
2017-09-05T04:13:16.578Z,99.99
2017-09-05T04:13:44.614Z,99.99
2017-09-05T04:14:12.632Z,99.99
2017-09-05T04:14:40.752Z,99.99
2017-09-05T04:15:08.911Z,99.99
2017-09-05T04:15:36.933Z,99.99
2017-09-05T04:16:05.002Z,99.99
2017-09-05T04:16:32.925Z,99.99
2017-09-05T04:17:01.087Z,99.99
2017-09-05T04:17:29.179Z,99.99
2017-09-05T04:17:57.275Z,99.99
2017-09-05T04:18:25.210Z,99.99
2017-09-05T04:18:53.360Z,99.99
2017-09-05T04:19:21.388Z,99.99
2017-09-05T04:19:49.524Z,99.99
2017-09-05T04:20:17.685Z,99.99
2017-09-05T04:20:45.737Z,99.99
2017-09-05T04:21:13.754Z,99.99
2017-09-05T04:21:41.774Z,99.99
2017-09-05T04:22:09.678Z,99.99
2017-09-05T04:22:37.636Z,99.99
2017-09-05T04:23:05.661Z,99.99
2017-09-05T04:23:33.786Z,99.99
2017-09-05T04:24:01.811Z,99.99
2017-09-05T04:24:29.754Z,99.99
2017-09-05T04:24:57.673Z,99.99
2017-09-05T04:25:25.731Z,99.99
2017-09-05T04:25:53.723Z,99.99
2017-09-05T04:26:21.734Z,99.99
2017-09-05T04:26:49.779Z,99.99
2017-09-05T04:27:17.949Z,99.99
2017-09-05T04:27:45.911Z,99.99
2017-09-05T04:28:13.999Z,99.99
2017-09-05T04:28:41.990Z,99.99
2017-09-05T04:29:10.009Z,99.99
2017-09-05T04:29:38.161Z,99.99
2017-09-05T04:30:06.203Z,99.99
2017-09-05T04:30:34.316Z,99.99
2017-09-05T04:31:02.435Z,99.99
2017-09-05T04:31:30.545Z,99.99
2017-09-05T04:31:58.465Z,99.99
2017-09-05T04:32:26.429Z,99.99
2017-09-05T04:32:54.351Z,99.99
2017-09-05T04:33:22.453Z,99.99
2017-09-05T04:33:50.392Z,99.99
2017-09-05T04:34:18.437Z,99.99
2017-09-05T04:34:46.552Z,99.99
2017-09-05T04:35:14.595Z,99.99
2017-09-05T04:35:42.598Z,99.99
2017-09-05T04:36:10.623Z,99.99
2017-09-05T04:36:38.791Z,99.99
2017-09-05T04:37:06.695Z,99.99
2017-09-05T04:37:34.686Z,99.99
2017-09-05T04:38:02.793Z,99.99
2017-09-05T04:38:30.720Z,99.99
2017-09-05T04:38:58.830Z,99.99
2017-09-05T04:39:26.862Z,99.99
2017-09-05T04:39:55.085Z,99.99
2017-09-05T04:40:23.248Z,99.99
2017-09-05T04:40:51.319Z,99.99
2017-09-05T04:41:19.342Z,99.99
2017-09-05T04:41:47.429Z,99.99
2017-09-05T04:42:15.463Z,99.99
2017-09-05T04:42:43.622Z,99.99
2017-09-05T04:43:11.699Z,99.99
2017-09-05T04:43:39.826Z,99.99
2017-09-05T04:44:07.791Z,99.99
2017-09-05T04:44:35.896Z,99.99
2017-09-05T04:45:03.999Z,99.99
2017-09-05T04:45:31.940Z,99.99
2017-09-05T04:45:59.859Z,99.99
2017-09-05T04:46:27.977Z,99.99
2017-09-05T04:46:56.127Z,99.99
2017-09-05T04:47:24.169Z,99.99
2017-09-05T04:47:52.308Z,99.99
2017-09-05T04:48:20.368Z,99.99
2017-09-05T04:48:48.491Z,99.99
2017-09-05T04:49:16.552Z,99.99
2017-09-05T04:49:44.574Z,99.99
2017-09-05T04:50:12.759Z,99.99
2017-09-05T04:50:40.914Z,99.99
2017-09-05T04:51:08.949Z,99.99
2017-09-05T04:51:36.880Z,99.99
2017-09-05T04:52:04.838Z,99.99
2017-09-05T04:52:32.892Z,99.99
2017-09-05T04:53:01.050Z,99.99
2017-09-05T04:53:29.166Z,99.99
2017-09-05T04:53:57.290Z,99.99
2017-09-05T04:54:25.431Z,99.99
2017-09-05T04:54:53.670Z,99.99
2017-09-05T04:55:21.741Z,99.99
2017-09-05T04:55:49.666Z,99.99
2017-09-05T04:56:17.696Z,99.99
2017-09-05T04:56:45.813Z,99.99
2017-09-05T04:57:13.725Z,99.99
2017-09-05T04:57:41.794Z,99.99
2017-09-05T04:58:09.790Z,99.99
2017-09-05T04:58:37.804Z,99.99
2017-09-05T04:59:05.645Z,99.99
2017-09-05T04:59:33.669Z,99.99
2017-09-05T05:00:01.814Z,99.99
2017-09-05T05:00:29.621Z,99.99
2017-09-05T05:00:57.954Z,99.99
2017-09-05T05:01:26.093Z,99.99
2017-09-05T05:01:54.047Z,99.99
2017-09-05T05:02:22.175Z,99.99
2017-09-05T05:02:50.087Z,99.99
2017-09-05T05:03:18.120Z,99.99
2017-09-05T05:03:46.141Z,99.99
2017-09-05T05:04:13.963Z,99.99
2017-09-05T05:04:42.016Z,99.99
2017-09-05T05:05:10.142Z,99.99
2017-09-05T05:05:38.173Z,99.99
2017-09-05T05:06:06.351Z,99.99
2017-09-05T05:06:34.376Z,99.99
2017-09-05T05:07:02.337Z,99.99
2017-09-05T05:07:30.364Z,99.99
2017-09-05T05:07:58.393Z,99.99
2017-09-05T05:08:26.309Z,99.99
2017-09-05T05:08:54.467Z,99.99
2017-09-05T05:09:22.506Z,99.99
2017-09-05T05:09:50.513Z,99.99
2017-09-05T05:10:18.744Z,99.99
2017-09-05T05:10:46.765Z,99.99
2017-09-05T05:11:14.862Z,99.99
2017-09-05T05:11:42.895Z,99.99
2017-09-05T05:12:10.956Z,99.99
2017-09-05T05:12:39.106Z,99.99
2017-09-05T05:13:07.260Z,99.99
2017-09-05T05:13:35.391Z,99.99
2017-09-05T05:14:03.194Z,99.99
2017-09-05T05:14:31.106Z,99.99
2017-09-05T05:14:59.270Z,99.99
2017-09-05T05:15:27.495Z,99.99
2017-09-05T05:15:55.558Z,99.99
2017-09-05T05:16:23.560Z,99.99
2017-09-05T05:16:51.717Z,99.99
2017-09-05T05:17:19.742Z,99.99
2017-09-05T05:17:47.660Z,99.99
2017-09-05T05:18:15.671Z,99.99
2017-09-05T05:18:43.704Z,99.99
2017-09-05T05:19:11.845Z,99.99
2017-09-05T05:19:39.888Z,99.99
2017-09-05T05:20:08.151Z,99.99
2017-09-05T05:20:36.205Z,99.99
2017-09-05T05:21:04.218Z,99.99
2017-09-05T05:21:32.400Z,99.99
2017-09-05T05:22:00.418Z,99.99
2017-09-05T05:22:28.450Z,99.99
2017-09-05T05:22:56.599Z,99.99
2017-09-05T05:23:24.715Z,99.99
2017-09-05T05:23:52.638Z,99.99
2017-09-05T05:24:20.644Z,99.99
2017-09-05T05:24:48.780Z,99.99
2017-09-05T05:25:16.847Z,99.99
2017-09-05T05:25:45.005Z,99.99
2017-09-05T05:26:13.024Z,99.99
2017-09-05T05:26:41.071Z,99.99
2017-09-05T05:27:09.020Z,99.99
2017-09-05T05:27:37.023Z,99.99
2017-09-05T05:28:04.970Z,99.99
2017-09-05T05:28:33.011Z,99.99
2017-09-05T05:29:01.106Z,99.99
2017-09-05T05:29:29.237Z,99.99
2017-09-05T05:29:57.249Z,99.99
2017-09-05T05:30:25.368Z,99.99
2017-09-05T05:30:53.448Z,99.99
2017-09-05T05:31:21.571Z,99.99
2017-09-05T05:31:49.643Z,99.99
2017-09-05T05:32:17.603Z,99.99
2017-09-05T05:32:45.608Z,99.99
2017-09-05T05:33:13.629Z,99.99
2017-09-05T05:33:41.649Z,99.99
2017-09-05T05:34:09.563Z,99.99
2017-09-05T05:34:37.396Z,99.99
2017-09-05T05:35:05.322Z,99.99
2017-09-05T05:35:33.452Z,99.99
2017-09-05T05:36:01.683Z,99.99
2017-09-05T05:36:29.866Z,99.99
2017-09-05T05:36:57.974Z,99.99
2017-09-05T05:37:25.931Z,99.99
2017-09-05T05:37:54.120Z,99.99
2017-09-05T05:38:22.260Z,99.99
2017-09-05T05:38:50.385Z,99.99
2017-09-05T05:39:18.417Z,99.99
2017-09-05T05:39:46.736Z,99.99
2017-09-05T05:40:14.681Z,99.99
2017-09-05T05:40:42.881Z,99.99
2017-09-05T05:41:11.037Z,99.99
2017-09-05T05:41:39.127Z,99.99
2017-09-05T05:42:07.058Z,99.99
2017-09-05T05:42:35.198Z,99.99
2017-09-05T05:43:03.070Z,99.99
2017-09-05T05:43:31.193Z,99.99
2017-09-05T05:43:59.267Z,99.99
2017-09-05T05:44:27.365Z,99.99
2017-09-05T05:44:55.467Z,99.99
2017-09-05T05:45:23.611Z,99.99
2017-09-05T05:45:51.731Z,99.99
2017-09-05T05:46:19.745Z,99.99
2017-09-05T05:46:47.805Z,99.99
2017-09-05T05:47:15.757Z,99.99
2017-09-05T05:47:43.741Z,99.99
2017-09-05T05:48:11.778Z,99.99
2017-09-05T05:48:39.825Z,99.99
2017-09-05T05:49:08.033Z,99.99
2017-09-05T05:49:36.221Z,99.99
2017-09-05T05:50:04.367Z,99.99
2017-09-05T05:50:32.477Z,99.99
2017-09-05T05:51:00.619Z,99.99
2017-09-05T05:51:28.655Z,99.99
2017-09-05T05:51:56.830Z,99.99
2017-09-05T05:52:25.110Z,99.99
2017-09-05T05:52:53.109Z,99.99
2017-09-05T05:53:21.162Z,99.99
2017-09-05T05:53:49.285Z,99.99
2017-09-05T05:54:17.424Z,99.99
2017-09-05T05:54:45.487Z,99.99
2017-09-05T05:55:13.399Z,99.99
2017-09-05T05:55:41.653Z,99.99
2017-09-05T05:56:09.701Z,99.99
2017-09-05T05:56:37.858Z,99.99
2017-09-05T05:57:05.875Z,99.99
2017-09-05T05:57:33.931Z,99.99
2017-09-05T05:58:02.022Z,99.99
2017-09-05T05:58:30.148Z,99.99
2017-09-05T05:58:58.303Z,99.99
2017-09-05T05:59:26.418Z,99.99
2017-09-05T05:59:54.581Z,99.99
2017-09-05T06:00:22.732Z,99.99
2017-09-05T06:00:50.802Z,99.99
2017-09-05T06:01:18.930Z,99.99
2017-09-05T06:01:46.998Z,99.99